Time;durP1;ratioP1;P1;durP2;ratioP2;P2;SDS_P1;SDS_P2;PMS_P1;PMS_P2;Temp;Humidity;BMP_temperature;BMP_pressure;BME280_temperature;BME280_humidity;BME280_pressure;Samples;Min_cycle;Max_cycle;Signal;HPM_P1;HPM_P2
2021/03/13 00:00:47;;;;;;;2.63;1.87;;;;;;;;;;4990677;28;20183;-48
2021/03/13 00:03:12;;;;;;;4.70;2.57;;;;;;;;;;5002229;28;20218;-49
2021/03/13 00:05:40;;;;;;;3.37;2.13;;;;;;;;;;5000991;28;20298;-51
2021/03/13 00:08:06;;;;;;;4.63;2.40;;;;;;;;;;5007835;28;20327;-49
2021/03/13 00:10:33;;;;;;;6.23;2.40;;;;;;;;;;5005220;28;20225;-50
2021/03/13 00:12:59;;;;;;;5.57;2.00;;;;;;;;;;5003613;28;20527;-49
2021/03/13 00:15:24;;;;;;;5.10;2.20;;;;;;;;;;5006090;28;20218;-50
2021/03/13 00:17:53;;;;;;;3.63;2.20;;;;;;;;;;4991473;28;20219;-51
2021/03/13 00:20:22;;;;;;;4.20;2.00;;;;;;;;;;5007039;28;20538;-49
2021/03/13 00:22:48;;;;;;;4.97;2.37;;;;;;;;;;5005502;28;20207;-50
2021/03/13 00:25:13;;;;;;;3.80;2.07;;;;;;;;;;5003025;28;20302;-50
2021/03/13 00:27:46;;;;;;;3.47;2.40;;;;;;;;;;5007748;28;20184;-49
2021/03/13 00:30:33;;;;;;;2.03;1.50;;;;;;;;;;5008573;28;20187;-50
2021/03/13 00:33:10;;;;;;;2.73;1.77;;;;;;;;;;5007054;28;20194;-48
2021/03/13 00:35:36;;;;;;;3.57;1.43;;;;;;;;;;5001137;28;20270;-50
2021/03/13 00:38:03;;;;;;;8.60;1.93;;;;;;;;;;5005796;28;20195;-47
2021/03/13 00:40:29;;;;;;;3.97;2.13;;;;;;;;;;5001773;28;20183;-49
2021/03/13 00:42:56;;;;;;;2.80;2.20;;;;;;;;;;4988594;28;20624;-50
2021/03/13 00:45:27;;;;;;;3.07;1.70;;;;;;;;;;5002191;28;20218;-48
2021/03/13 00:47:53;;;;;;;1.50;1.40;;;;;;;;;;5004356;28;20223;-48
2021/03/13 00:50:21;;;;;;;5.50;2.00;;;;;;;;;;5003786;28;20610;-50
2021/03/13 00:52:47;;;;;;;4.77;2.17;;;;;;;;;;4989135;28;20198;-50
2021/03/13 00:55:13;;;;;;;5.20;2.73;;;;;;;;;;5002795;28;20224;-49
2021/03/13 00:57:39;;;;;;;7.40;2.60;;;;;;;;;;5003503;28;20215;-47
2021/03/13 01:00:09;;;;;;;3.17;1.77;;;;;;;;;;4989447;28;20204;-50
2021/03/13 01:02:35;;;;;;;3.50;2.20;;;;;;;;;;5007608;28;20673;-47
2021/03/13 01:05:01;;;;;;;3.20;2.40;;;;;;;;;;4989560;28;20206;-49
2021/03/13 01:07:26;;;;;;;3.00;2.17;;;;;;;;;;4998456;28;20543;-49
2021/03/13 01:09:52;;;;;;;4.67;1.80;;;;;;;;;;4998768;28;20314;-50
2021/03/13 01:12:17;;;;;;;2.67;1.83;;;;;;;;;;5007680;28;20190;-49
2021/03/13 01:14:43;;;;;;;9.90;2.17;;;;;;;;;;5003446;28;20222;-48
2021/03/13 01:17:09;;;;;;;4.40;2.20;;;;;;;;;;4987805;28;20222;-49
2021/03/13 01:19:34;;;;;;;3.33;1.97;;;;;;;;;;4988596;28;21969;-49
2021/03/13 01:21:59;;;;;;;2.63;1.73;;;;;;;;;;5008180;28;20187;-48
2021/03/13 01:24:25;;;;;;;5.13;1.73;;;;;;;;;;5003192;28;20679;-47
2021/03/13 01:26:50;;;;;;;2.83;2.10;;;;;;;;;;5004204;28;20258;-49
2021/03/13 01:29:15;;;;;;;2.07;1.87;;;;;;;;;;4988488;28;20187;-49
2021/03/13 01:31:41;;;;;;;2.07;1.80;;;;;;;;;;5007875;28;20535;-50
2021/03/13 01:34:06;;;;;;;3.10;1.83;;;;;;;;;;5003962;28;20222;-50
2021/03/13 01:36:34;;;;;;;3.13;1.60;;;;;;;;;;5003630;28;20211;-49
2021/03/13 01:38:59;;;;;;;4.73;2.27;;;;;;;;;;4988361;28;20203;-50
2021/03/13 01:41:24;;;;;;;1.70;1.57;;;;;;;;;;5008478;28;20573;-48
2021/03/13 01:43:50;;;;;;;2.87;1.80;;;;;;;;;;4999283;28;20187;-50
2021/03/13 01:46:15;;;;;;;1.83;1.57;;;;;;;;;;5001158;28;20191;-50
2021/03/13 01:48:48;;;;;;;4.40;1.90;;;;;;;;;;5004369;28;20200;-50
2021/03/13 01:51:14;;;;;;;7.47;2.20;;;;;;;;;;5006724;28;20215;-49
2021/03/13 01:53:39;;;;;;;3.20;1.93;;;;;;;;;;5000834;28;20749;-47
2021/03/13 01:56:05;;;;;;;3.73;2.33;;;;;;;;;;5001371;28;20211;-48
2021/03/13 01:58:30;;;;;;;2.80;1.50;;;;;;;;;;5003050;28;20206;-49
2021/03/13 02:00:56;;;;;;;1.80;1.70;;;;;;;;;;5007378;28;20267;-49
2021/03/13 02:03:21;;;;;;;2.60;1.73;;;;;;;;;;5002063;28;20195;-50
2021/03/13 02:05:49;;;;;;;2.63;2.20;;;;;;;;;;5000849;28;20211;-48
2021/03/13 02:08:27;;;;;;;2.10;1.80;;;;;;;;;;4987081;28;20212;-49
2021/03/13 02:11:06;;;;;;;4.33;2.17;;;;;;;;;;5002951;28;21904;-48
2021/03/13 02:13:50;;;;;;;4.57;2.17;;;;;;;;;;5007232;28;20257;-49
2021/03/13 02:16:25;;;;;;;6.23;2.30;;;;;;;;;;4988558;28;20593;-49
2021/03/13 02:19:09;;;;;;;1.70;1.17;;;;;;;;;;5004505;28;20195;-50
2021/03/13 02:21:43;;;;;;;3.63;2.20;;;;;;;;;;4982125;28;20925;-48
2021/03/13 02:24:22;;;;;;;2.63;1.73;;;;;;;;;;4985290;28;20771;-49
2021/03/13 02:27:06;;;;;;;3.63;2.23;;;;;;;;;;5015072;28;20190;-48
2021/03/13 02:29:43;;;;;;;3.23;1.43;;;;;;;;;;5001126;28;20199;-49
2021/03/13 02:32:23;;;;;;;3.50;1.67;;;;;;;;;;4998524;28;20667;-48
2021/03/13 02:34:56;;;;;;;3.13;2.20;;;;;;;;;;5003468;28;20211;-51
2021/03/13 02:37:25;;;;;;;3.67;1.83;;;;;;;;;;5000995;28;20256;-49
2021/03/13 02:39:53;;;;;;;3.90;1.67;;;;;;;;;;5015873;28;20560;-47
2021/03/13 02:42:21;;;;;;;2.23;1.50;;;;;;;;;;5003725;28;20191;-50
2021/03/13 02:44:47;;;;;;;5.53;2.30;;;;;;;;;;4989286;28;20666;-48
2021/03/13 02:47:14;;;;;;;2.97;1.70;;;;;;;;;;5011261;28;20223;-50
2021/03/13 02:49:43;;;;;;;6.17;1.30;;;;;;;;;;4988905;28;20234;-52
2021/03/13 02:52:10;;;;;;;3.77;1.67;;;;;;;;;;5008624;28;20225;-50
2021/03/13 02:54:36;;;;;;;3.17;1.10;;;;;;;;;;4991222;28;20223;-48
2021/03/13 02:57:03;;;;;;;1.97;1.20;;;;;;;;;;5005230;28;20235;-48
2021/03/13 02:59:29;;;;;;;1.67;1.30;;;;;;;;;;4992767;28;20283;-49
2021/03/13 03:01:56;;;;;;;2.57;1.40;;;;;;;;;;5013865;28;20200;-48
2021/03/13 03:04:22;;;;;;;1.70;1.33;;;;;;;;;;4977400;28;20211;-49
2021/03/13 03:06:52;;;;;;;2.27;1.60;;;;;;;;;;5013625;28;20184;-50
2021/03/13 03:09:18;;;;;;;4.80;1.70;;;;;;;;;;5003569;28;20223;-48
2021/03/13 03:11:44;;;;;;;2.20;1.40;;;;;;;;;;4986257;28;20226;-48
2021/03/13 03:14:12;;;;;;;2.57;1.40;;;;;;;;;;5002745;28;20721;-50
2021/03/13 03:16:40;;;;;;;3.03;1.50;;;;;;;;;;5006436;28;20218;-49
2021/03/13 03:19:07;;;;;;;1.00;0.87;;;;;;;;;;5010979;28;20206;-49
2021/03/13 03:21:35;;;;;;;2.90;1.60;;;;;;;;;;5007403;28;20256;-49
2021/03/13 03:24:01;;;;;;;3.67;1.40;;;;;;;;;;5007061;28;20224;-50
2021/03/13 03:26:27;;;;;;;1.30;1.20;;;;;;;;;;5011672;28;20199;-48
2021/03/13 03:28:52;;;;;;;2.03;1.30;;;;;;;;;;5002439;28;20258;-51
2021/03/13 03:31:17;;;;;;;4.17;1.33;;;;;;;;;;5017858;28;20186;-49
2021/03/13 03:33:43;;;;;;;2.10;1.20;;;;;;;;;;5005254;28;20449;-48
2021/03/13 03:36:09;;;;;;;3.47;1.57;;;;;;;;;;4990640;28;20216;-48
2021/03/13 03:38:37;;;;;;;3.20;1.30;;;;;;;;;;5001862;28;20206;-49
2021/03/13 03:41:03;;;;;;;1.97;1.63;;;;;;;;;;5004292;28;20649;-48
2021/03/13 03:43:37;;;;;;;1.10;0.83;;;;;;;;;;5007380;28;20245;-48
2021/03/13 03:46:04;;;;;;;2.93;0.97;;;;;;;;;;4988327;28;20212;-51
2021/03/13 03:48:30;;;;;;;2.90;1.30;;;;;;;;;;4986086;28;20223;-49
2021/03/13 03:50:57;;;;;;;3.67;0.87;;;;;;;;;;4994056;28;20551;-48
2021/03/13 03:53:25;;;;;;;1.93;1.03;;;;;;;;;;5010325;28;20203;-49
2021/03/13 03:55:53;;;;;;;2.47;1.60;;;;;;;;;;5009628;28;20214;-48
2021/03/13 03:58:23;;;;;;;1.63;0.90;;;;;;;;;;5006490;28;20203;-51
2021/03/13 04:00:50;;;;;;;1.13;1.00;;;;;;;;;;5003407;28;20192;-49
2021/03/13 04:03:17;;;;;;;3.47;1.63;;;;;;;;;;5005002;28;20275;-51
2021/03/13 04:05:43;;;;;;;1.97;1.10;;;;;;;;;;4995722;28;20227;-48
2021/03/13 04:08:12;;;;;;;1.77;1.20;;;;;;;;;;5010600;28;20196;-49
2021/03/13 04:10:41;;;;;;;1.93;1.20;;;;;;;;;;5014995;28;20270;-50
2021/03/13 04:13:06;;;;;;;0.70;0.70;;;;;;;;;;5008121;28;20249;-49
2021/03/13 04:15:32;;;;;;;2.47;1.23;;;;;;;;;;5006189;28;20215;-50
2021/03/13 04:17:58;;;;;;;2.97;1.43;;;;;;;;;;5008533;28;20211;-50
2021/03/13 04:20:23;;;;;;;1.73;1.07;;;;;;;;;;5008936;28;20597;-50
2021/03/13 04:22:49;;;;;;;1.63;1.23;;;;;;;;;;5007209;28;20599;-51
2021/03/13 04:25:16;;;;;;;4.70;1.60;;;;;;;;;;5004197;28;20223;-48
2021/03/13 04:27:44;;;;;;;3.73;1.17;;;;;;;;;;4996198;28;20191;-48
2021/03/13 04:30:15;;;;;;;1.57;1.13;;;;;;;;;;5002697;28;20183;-48
2021/03/13 04:32:42;;;;;;;1.57;1.40;;;;;;;;;;5008733;28;20266;-49
2021/03/13 04:35:09;;;;;;;1.17;0.90;;;;;;;;;;4989773;28;20215;-49
2021/03/13 04:37:35;;;;;;;1.83;1.50;;;;;;;;;;5004131;28;20230;-51
2021/03/13 04:40:01;;;;;;;5.53;1.50;;;;;;;;;;5005598;28;20191;-52
2021/03/13 04:42:26;;;;;;;1.20;1.10;;;;;;;;;;5014121;28;20377;-49
2021/03/13 04:44:52;;;;;;;3.93;1.73;;;;;;;;;;5004944;28;20918;-51
2021/03/13 04:47:17;;;;;;;2.83;1.30;;;;;;;;;;5006891;28;20790;-50
2021/03/13 04:49:43;;;;;;;2.70;0.90;;;;;;;;;;5005065;28;20195;-51
2021/03/13 04:52:09;;;;;;;2.43;1.20;;;;;;;;;;5017499;28;20182;-49
2021/03/13 04:54:34;;;;;;;3.00;1.70;;;;;;;;;;5005611;28;20791;-49
2021/03/13 04:56:59;;;;;;;1.67;1.37;;;;;;;;;;4998294;28;20215;-48
2021/03/13 04:59:25;;;;;;;1.47;1.37;;;;;;;;;;4997873;28;20187;-52
2021/03/13 05:01:50;;;;;;;2.67;1.63;;;;;;;;;;5008664;28;20201;-49
2021/03/13 05:04:15;;;;;;;1.40;1.30;;;;;;;;;;5004996;28;20220;-50
2021/03/13 05:06:41;;;;;;;2.23;1.83;;;;;;;;;;5011705;28;20647;-48
2021/03/13 05:09:06;;;;;;;1.83;1.30;;;;;;;;;;5000411;28;20201;-48
2021/03/13 05:11:33;;;;;;;3.00;1.87;;;;;;;;;;4994382;28;20200;-47
2021/03/13 05:14:00;;;;;;;4.23;2.03;;;;;;;;;;4999812;28;20195;-48
2021/03/13 05:16:25;;;;;;;4.03;1.63;;;;;;;;;;5003890;28;20249;-49
2021/03/13 05:18:50;;;;;;;2.87;2.00;;;;;;;;;;4999455;28;20198;-48
2021/03/13 05:21:17;;;;;;;1.80;1.43;;;;;;;;;;5016492;28;20655;-48
2021/03/13 05:23:43;;;;;;;1.97;1.77;;;;;;;;;;5003580;28;20222;-50
2021/03/13 05:26:09;;;;;;;4.47;1.87;;;;;;;;;;5013018;28;20605;-48
2021/03/13 05:28:34;;;;;;;2.83;2.00;;;;;;;;;;5002714;28;20244;-50
2021/03/13 05:30:59;;;;;;;1.60;1.40;;;;;;;;;;5017019;28;20183;-47
2021/03/13 05:33:27;;;;;;;1.97;1.77;;;;;;;;;;5002847;28;20188;-49
2021/03/13 05:35:53;;;;;;;2.67;1.63;;;;;;;;;;5010284;28;20253;-47
2021/03/13 05:38:18;;;;;;;1.83;1.67;;;;;;;;;;5013194;28;20215;-49
2021/03/13 05:40:43;;;;;;;2.43;1.80;;;;;;;;;;5000583;28;20179;-48
2021/03/13 05:43:13;;;;;;;3.40;2.30;;;;;;;;;;5004946;28;20678;-49
2021/03/13 05:45:39;;;;;;;4.47;1.73;;;;;;;;;;4996265;28;20203;-49
2021/03/13 05:48:08;;;;;;;2.77;2.43;;;;;;;;;;5013699;28;20671;-50
2021/03/13 05:50:34;;;;;;;2.60;2.40;;;;;;;;;;5006662;28;20175;-50
2021/03/13 05:53:02;;;;;;;5.23;3.00;;;;;;;;;;4992241;28;20201;-48
2021/03/13 05:55:29;;;;;;;3.30;2.60;;;;;;;;;;4979082;28;20636;-50
2021/03/13 05:57:54;;;;;;;4.03;2.80;;;;;;;;;;4989541;28;20301;-49
2021/03/13 06:00:20;;;;;;;3.97;2.50;;;;;;;;;;5007119;28;20274;-49
2021/03/13 06:02:46;;;;;;;2.80;2.10;;;;;;;;;;5002557;28;20190;-48
2021/03/13 06:05:12;;;;;;;2.77;2.00;;;;;;;;;;5008915;28;20297;-48
2021/03/13 06:07:41;;;;;;;2.70;1.77;;;;;;;;;;4992049;28;20192;-49
2021/03/13 06:10:07;;;;;;;1.67;1.50;;;;;;;;;;5003091;28;20230;-47
2021/03/13 06:12:32;;;;;;;2.27;1.87;;;;;;;;;;5007218;28;20222;-50
2021/03/13 06:14:57;;;;;;;3.77;2.20;;;;;;;;;;5003079;28;20245;-50
2021/03/13 06:17:25;;;;;;;2.07;1.87;;;;;;;;;;4992948;28;20215;-48
2021/03/13 06:19:58;;;;;;;1.83;1.70;;;;;;;;;;4988389;28;20187;-49
2021/03/13 06:22:42;;;;;;;1.70;1.60;;;;;;;;;;5001399;28;20215;-49
2021/03/13 06:25:10;;;;;;;2.10;1.50;;;;;;;;;;5000251;28;21287;-49
2021/03/13 06:27:35;;;;;;;1.37;1.27;;;;;;;;;;5009308;28;20184;-50
2021/03/13 06:30:08;;;;;;;2.50;1.50;;;;;;;;;;5005858;28;20193;-49
2021/03/13 06:32:34;;;;;;;0.90;0.80;;;;;;;;;;5010044;28;20301;-48
2021/03/13 06:35:26;;;;;;;1.43;1.20;;;;;;;;;;5006292;28;20708;-50
2021/03/13 06:37:53;;;;;;;2.97;1.30;;;;;;;;;;4990158;28;20671;-49
2021/03/13 06:40:36;;;;;;;1.27;1.17;;;;;;;;;;5015943;28;20592;-50
2021/03/13 06:43:17;;;;;;;1.60;1.17;;;;;;;;;;4998893;28;20284;-50
2021/03/13 06:46:08;;;;;;;1.70;1.40;;;;;;;;;;5017883;28;20590;-48
2021/03/13 06:48:39;;;;;;;1.20;1.10;;;;;;;;;;5007042;28;20187;-50
2021/03/13 06:51:30;;;;;;;2.07;1.40;;;;;;;;;;5008418;28;20215;-48
2021/03/13 06:53:59;;;;;;;1.27;0.90;;;;;;;;;;5002593;28;20257;-48
2021/03/13 06:56:29;;;;;;;2.03;1.30;;;;;;;;;;5015018;28;20306;-48
2021/03/13 06:58:55;;;;;;;1.03;0.90;;;;;;;;;;5009625;28;20219;-50
2021/03/13 07:01:31;;;;;;;1.30;1.00;;;;;;;;;;5012982;28;20310;-50
2021/03/13 07:03:57;;;;;;;1.53;1.43;;;;;;;;;;5007514;28;20213;-49
2021/03/13 07:06:23;;;;;;;1.20;1.00;;;;;;;;;;4990537;28;20289;-48
2021/03/13 07:08:53;;;;;;;0.93;0.70;;;;;;;;;;5005201;28;20871;-49
2021/03/13 07:11:24;;;;;;;1.00;0.90;;;;;;;;;;5002722;28;20184;-52
2021/03/13 07:13:54;;;;;;;1.10;1.03;;;;;;;;;;5009330;28;20194;-48
2021/03/13 07:16:19;;;;;;;1.47;1.37;;;;;;;;;;4993905;28;20211;-48
2021/03/13 07:18:45;;;;;;;1.13;1.03;;;;;;;;;;5013652;28;20184;-49
2021/03/13 07:21:13;;;;;;;1.73;1.10;;;;;;;;;;5003912;28;20339;-50
2021/03/13 07:23:41;;;;;;;1.80;1.60;;;;;;;;;;5001328;28;20230;-49
2021/03/13 07:26:09;;;;;;;2.07;1.20;;;;;;;;;;4986665;28;20602;-49
2021/03/13 07:28:35;;;;;;;1.30;1.20;;;;;;;;;;5011759;28;20281;-50
2021/03/13 07:31:03;;;;;;;1.80;1.23;;;;;;;;;;5001936;28;20207;-50
2021/03/13 07:33:29;;;;;;;1.10;1.00;;;;;;;;;;4995132;28;20198;-51
2021/03/13 07:35:54;;;;;;;1.40;1.30;;;;;;;;;;5008073;28;20206;-50
2021/03/13 07:38:24;;;;;;;2.77;1.80;;;;;;;;;;5006688;28;20214;-50
2021/03/13 07:40:51;;;;;;;4.93;1.83;;;;;;;;;;4999220;28;20243;-49
2021/03/13 07:43:16;;;;;;;1.83;1.70;;;;;;;;;;5013009;28;20194;-50
2021/03/13 07:45:45;;;;;;;1.80;1.70;;;;;;;;;;5003674;28;20303;-49
2021/03/13 07:48:11;;;;;;;1.67;1.57;;;;;;;;;;5014972;28;20188;-51
2021/03/13 07:50:39;;;;;;;1.97;1.30;;;;;;;;;;5009205;28;20291;-49
2021/03/13 07:53:09;;;;;;;1.40;1.30;;;;;;;;;;5009028;28;20195;-51
2021/03/13 07:55:36;;;;;;;1.40;1.30;;;;;;;;;;5005746;28;20211;-49
2021/03/13 07:58:02;;;;;;;1.83;1.50;;;;;;;;;;5014332;28;20227;-51
2021/03/13 08:00:44;;;;;;;2.27;1.23;;;;;;;;;;5007456;28;20581;-49
2021/03/13 08:03:33;;;;;;;1.80;1.27;;;;;;;;;;5009874;28;20198;-51
2021/03/13 08:06:17;;;;;;;1.63;1.27;;;;;;;;;;4999794;28;20247;-49
2021/03/13 08:08:50;;;;;;;3.83;1.40;;;;;;;;;;5007792;28;20195;-50
2021/03/13 08:11:19;;;;;;;1.17;1.07;;;;;;;;;;5006561;28;20237;-51
2021/03/13 08:13:53;;;;;;;1.47;1.37;;;;;;;;;;4991215;28;20740;-49
2021/03/13 08:16:41;;;;;;;1.47;1.13;;;;;;;;;;5001419;28;20198;-53
2021/03/13 08:19:27;;;;;;;1.33;1.13;;;;;;;;;;5006059;28;20494;-50
2021/03/13 08:22:12;;;;;;;2.77;1.27;;;;;;;;;;5008138;28;20725;-50
2021/03/13 08:24:42;;;;;;;0.93;0.83;;;;;;;;;;5003974;28;20215;-49
2021/03/13 08:27:10;;;;;;;2.00;1.27;;;;;;;;;;5007594;28;20195;-50
2021/03/13 08:29:43;;;;;;;1.20;1.10;;;;;;;;;;5005945;28;20188;-50
2021/03/13 08:32:09;;;;;;;2.03;1.20;;;;;;;;;;5008089;28;20556;-47
2021/03/13 08:34:34;;;;;;;1.67;1.10;;;;;;;;;;5006772;28;20211;-50
2021/03/13 08:37:14;;;;;;;1.23;1.10;;;;;;;;;;4991886;28;20230;-49
2021/03/13 08:39:39;;;;;;;1.20;1.10;;;;;;;;;;5004466;28;20214;-51
2021/03/13 08:42:05;;;;;;;0.57;0.57;;;;;;;;;;5007752;28;20184;-52
2021/03/13 08:44:38;;;;;;;2.27;1.50;;;;;;;;;;5007543;28;20215;-49
2021/03/13 08:47:12;;;;;;;1.57;1.10;;;;;;;;;;5003926;28;20190;-50
2021/03/13 08:49:43;;;;;;;1.77;0.90;;;;;;;;;;5006094;28;20314;-51
2021/03/13 08:52:08;;;;;;;2.27;1.27;;;;;;;;;;5005300;28;20195;-49
2021/03/13 08:54:40;;;;;;;0.73;0.73;;;;;;;;;;5008409;28;20207;-51
2021/03/13 08:57:11;;;;;;;1.90;1.40;;;;;;;;;;4986821;28;20711;-49
2021/03/13 08:59:39;;;;;;;1.10;0.90;;;;;;;;;;4976305;28;20197;-48
2021/03/13 09:02:12;;;;;;;0.67;0.67;;;;;;;;;;5003710;28;20262;-51
2021/03/13 09:04:38;;;;;;;1.97;1.20;;;;;;;;;;5007607;28;20215;-50
2021/03/13 09:07:06;;;;;;;1.30;0.90;;;;;;;;;;5000298;28;20192;-52
2021/03/13 09:09:33;;;;;;;1.57;0.80;;;;;;;;;;5003315;28;20559;-51
2021/03/13 09:12:07;;;;;;;2.47;1.10;;;;;;;;;;4988141;28;20192;-48
2021/03/13 09:14:33;;;;;;;0.60;0.60;;;;;;;;;;4989643;28;20738;-51
2021/03/13 09:17:10;;;;;;;2.43;0.90;;;;;;;;;;5002991;28;20209;-50
2021/03/13 09:19:36;;;;;;;2.17;1.10;;;;;;;;;;5003373;28;20187;-50
2021/03/13 09:22:07;;;;;;;3.60;0.90;;;;;;;;;;5009298;28;20197;-51
2021/03/13 09:24:33;;;;;;;0.50;0.50;;;;;;;;;;5004234;28;20230;-49
2021/03/13 09:27:00;;;;;;;0.70;0.70;;;;;;;;;;5004935;28;20551;-49
2021/03/13 09:29:31;;;;;;;1.60;0.60;;;;;;;;;;5001905;28;20226;-50
2021/03/13 09:32:07;;;;;;;1.50;1.00;;;;;;;;;;5007087;28;20655;-50
2021/03/13 09:34:34;;;;;;;1.30;0.87;;;;;;;;;;5010323;28;20214;-52
2021/03/13 09:37:29;;;;;;;1.67;0.70;;;;;;;;;;4987238;28;20211;-49
2021/03/13 09:40:06;;;;;;;0.83;0.73;;;;;;;;;;5001985;28;20206;-49
2021/03/13 09:42:34;;;;;;;0.73;0.70;;;;;;;;;;5001891;28;20195;-50
2021/03/13 09:45:07;;;;;;;2.43;0.70;;;;;;;;;;5008320;28;20643;-52
2021/03/13 09:47:38;;;;;;;0.70;0.70;;;;;;;;;;5003275;28;20228;-52
2021/03/13 09:50:11;;;;;;;0.67;0.50;;;;;;;;;;5003336;28;20934;-50
2021/03/13 09:52:49;;;;;;;0.60;0.60;;;;;;;;;;5004213;28;20200;-49
2021/03/13 09:55:27;;;;;;;0.60;0.50;;;;;;;;;;5006970;28;20211;-52
2021/03/13 09:57:55;;;;;;;0.50;0.50;;;;;;;;;;5006892;28;20253;-48
2021/03/13 10:00:26;;;;;;;1.37;0.70;;;;;;;;;;5003856;28;20193;-49
2021/03/13 10:02:53;;;;;;;0.60;0.60;;;;;;;;;;5009146;28;20202;-50
2021/03/13 10:05:25;;;;;;;0.60;0.50;;;;;;;;;;5015348;28;20282;-53
2021/03/13 10:07:51;;;;;;;0.97;0.57;;;;;;;;;;5005948;28;20683;-50
2021/03/13 10:10:21;;;;;;;0.53;0.53;;;;;;;;;;5002762;28;20199;-50
2021/03/13 10:12:51;;;;;;;0.60;0.60;;;;;;;;;;5008762;28;20246;-50
2021/03/13 10:15:23;;;;;;;0.50;0.50;;;;;;;;;;5004978;28;20211;-49
2021/03/13 10:18:09;;;;;;;0.70;0.50;;;;;;;;;;5002199;28;20223;-51
2021/03/13 10:20:38;;;;;;;0.57;0.40;;;;;;;;;;5002412;28;20230;-49
2021/03/13 10:23:10;;;;;;;0.40;0.40;;;;;;;;;;5002912;28;20199;-50
2021/03/13 10:25:37;;;;;;;0.50;0.50;;;;;;;;;;5006157;28;20215;-51
2021/03/13 10:28:10;;;;;;;0.30;0.30;;;;;;;;;;5002867;28;20191;-51
2021/03/13 10:30:46;;;;;;;0.97;0.50;;;;;;;;;;4988162;28;20180;-51
2021/03/13 10:33:14;;;;;;;0.53;0.50;;;;;;;;;;5005017;28;20298;-49
2021/03/13 10:35:40;;;;;;;10.30;1.03;;;;;;;;;;5006753;28;20237;-49
2021/03/13 10:38:08;;;;;;;2.70;0.80;;;;;;;;;;5003291;28;20254;-48
2021/03/13 10:40:36;;;;;;;2.10;0.77;;;;;;;;;;5004988;28;20738;-49
2021/03/13 10:43:38;;;;;;;3.07;0.97;;;;;;;;;;5004732;28;20727;-50
2021/03/13 10:46:07;;;;;;;1.90;0.70;;;;;;;;;;5005921;28;20228;-51
2021/03/13 10:48:35;;;;;;;2.10;0.60;;;;;;;;;;5002878;28;20227;-51
2021/03/13 10:51:01;;;;;;;0.70;0.60;;;;;;;;;;5001646;28;20711;-49
2021/03/13 10:53:35;;;;;;;3.27;0.60;;;;;;;;;;5004560;28;20192;-49
2021/03/13 10:56:09;;;;;;;2.33;0.73;;;;;;;;;;5005547;28;20231;-50
2021/03/13 10:58:57;;;;;;;2.73;0.83;;;;;;;;;;4988289;28;20192;-50
2021/03/13 11:01:25;;;;;;;2.10;0.60;;;;;;;;;;5004332;28;20269;-50
2021/03/13 11:03:53;;;;;;;1.53;0.40;;;;;;;;;;4990227;28;20663;-49
2021/03/13 11:06:27;;;;;;;4.80;0.70;;;;;;;;;;4990797;28;20248;-53
2021/03/13 11:08:55;;;;;;;3.30;0.63;;;;;;;;;;5010132;28;20182;-52
2021/03/13 11:11:20;;;;;;;1.37;0.50;;;;;;;;;;4990258;28;20215;-51
2021/03/13 11:13:46;;;;;;;1.80;0.43;;;;;;;;;;4993472;28;20196;-50
2021/03/13 11:16:11;;;;;;;3.57;0.70;;;;;;;;;;5004923;28;20188;-51
2021/03/13 11:18:36;;;;;;;0.63;0.60;;;;;;;;;;5007223;28;20648;-48
2021/03/13 11:21:02;;;;;;;2.20;0.60;;;;;;;;;;5006736;28;20240;-51
2021/03/13 11:23:28;;;;;;;2.70;0.83;;;;;;;;;;5005174;28;20183;-51
2021/03/13 11:25:53;;;;;;;3.30;0.77;;;;;;;;;;5009781;28;20277;-49
2021/03/13 11:28:18;;;;;;;3.43;0.90;;;;;;;;;;5006930;28;20184;-49
2021/03/13 11:30:44;;;;;;;1.23;0.90;;;;;;;;;;5007105;28;20254;-51
2021/03/13 11:33:10;;;;;;;2.83;0.83;;;;;;;;;;5006262;28;20679;-51
2021/03/13 11:35:35;;;;;;;1.17;0.60;;;;;;;;;;5006850;28;20246;-51
2021/03/13 11:38:01;;;;;;;0.50;0.50;;;;;;;;;;5004282;28;20266;-51
2021/03/13 11:40:26;;;;;;;2.50;0.90;;;;;;;;;;5005810;28;20575;-49
2021/03/13 11:42:52;;;;;;;1.97;0.60;;;;;;;;;;5009083;28;20199;-49
2021/03/13 11:45:18;;;;;;;1.77;0.90;;;;;;;;;;5005988;28;20211;-49
2021/03/13 11:47:44;;;;;;;1.77;0.73;;;;;;;;;;4973660;28;20183;-51
2021/03/13 11:50:12;;;;;;;2.93;0.67;;;;;;;;;;5022529;28;20283;-50
2021/03/13 11:52:38;;;;;;;3.90;0.87;;;;;;;;;;5028839;28;20187;-51
2021/03/13 11:55:05;;;;;;;2.47;0.70;;;;;;;;;;5027181;28;20215;-52
2021/03/13 11:57:31;;;;;;;4.40;1.10;;;;;;;;;;5026210;28;20301;-50
2021/03/13 11:59:56;;;;;;;4.20;0.90;;;;;;;;;;5028481;28;20188;-49
2021/03/13 12:02:21;;;;;;;1.70;0.87;;;;;;;;;;5025522;28;20212;-50
2021/03/13 12:04:47;;;;;;;1.73;0.60;;;;;;;;;;5026712;28;20214;-49
2021/03/13 12:07:12;;;;;;;1.67;0.70;;;;;;;;;;5024736;28;20223;-50
2021/03/13 12:09:39;;;;;;;2.30;0.80;;;;;;;;;;5028527;28;20182;-50
2021/03/13 12:12:06;;;;;;;3.83;0.80;;;;;;;;;;5027483;28;20179;-50
2021/03/13 12:14:35;;;;;;;2.30;0.80;;;;;;;;;;5025670;28;20654;-49
2021/03/13 12:17:01;;;;;;;2.03;0.73;;;;;;;;;;5027193;28;20226;-49
2021/03/13 12:19:27;;;;;;;2.77;1.00;;;;;;;;;;5028048;28;20188;-50
2021/03/13 12:21:52;;;;;;;2.17;0.77;;;;;;;;;;5026669;28;20211;-49
2021/03/13 12:24:17;;;;;;;6.27;1.73;;;;;;;;;;5027411;28;20257;-50
2021/03/13 12:26:43;;;;;;;1.90;0.73;;;;;;;;;;5009559;28;20180;-50
2021/03/13 12:29:09;;;;;;;2.27;0.67;;;;;;;;;;5027088;28;20192;-49
2021/03/13 12:31:34;;;;;;;2.40;0.80;;;;;;;;;;5020525;28;20175;-50
2021/03/13 12:34:00;;;;;;;1.37;0.60;;;;;;;;;;5011772;28;20187;-49
2021/03/13 12:36:25;;;;;;;3.13;0.90;;;;;;;;;;5029424;28;20275;-50
2021/03/13 12:38:51;;;;;;;2.70;1.07;;;;;;;;;;5030381;28;20186;-50
2021/03/13 12:41:16;;;;;;;1.03;0.60;;;;;;;;;;5025662;28;20249;-49
2021/03/13 12:43:41;;;;;;;0.90;0.60;;;;;;;;;;5008180;28;20187;-49
2021/03/13 12:46:09;;;;;;;1.67;1.40;;;;;;;;;;5019523;28;20222;-50
2021/03/13 12:48:34;;;;;;;2.00;0.80;;;;;;;;;;5017988;28;20191;-49
2021/03/13 12:51:00;;;;;;;0.77;0.60;;;;;;;;;;5022226;28;20199;-50
2021/03/13 12:53:25;;;;;;;1.63;0.50;;;;;;;;;;5021862;28;20199;-50
2021/03/13 12:55:50;;;;;;;0.93;0.53;;;;;;;;;;5017865;28;20257;-49
2021/03/13 12:58:15;;;;;;;1.47;0.80;;;;;;;;;;5014610;28;20220;-50
2021/03/13 13:00:41;;;;;;;1.43;0.57;;;;;;;;;;5021964;28;20183;-50
2021/03/13 13:03:08;;;;;;;0.50;0.43;;;;;;;;;;5019690;28;20210;-50
2021/03/13 13:05:35;;;;;;;0.70;0.60;;;;;;;;;;5016777;28;20218;-48
2021/03/13 13:08:00;;;;;;;1.37;0.60;;;;;;;;;;5016295;28;20270;-49
2021/03/13 13:10:25;;;;;;;2.93;0.60;;;;;;;;;;5020671;28;20229;-50
2021/03/13 13:12:50;;;;;;;1.83;0.80;;;;;;;;;;5015840;28;20192;-49
2021/03/13 13:15:16;;;;;;;0.97;0.70;;;;;;;;;;5016688;28;20318;-48
2021/03/13 13:17:41;;;;;;;1.50;0.87;;;;;;;;;;5019048;28;20208;-50
2021/03/13 13:20:11;;;;;;;1.70;0.90;;;;;;;;;;5021993;28;20195;-48
2021/03/13 13:22:37;;;;;;;1.40;0.73;;;;;;;;;;5001339;28;20838;-50
2021/03/13 13:25:04;;;;;;;1.50;0.60;;;;;;;;;;4997478;28;20302;-49
2021/03/13 13:27:30;;;;;;;1.73;1.10;;;;;;;;;;5018229;28;20182;-48
2021/03/13 13:29:56;;;;;;;1.47;0.70;;;;;;;;;;5020560;28;20179;-48
2021/03/13 13:32:21;;;;;;;1.93;0.93;;;;;;;;;;4999180;28;20187;-49
2021/03/13 13:34:49;;;;;;;1.90;0.70;;;;;;;;;;5014983;28;20217;-49
2021/03/13 13:37:14;;;;;;;1.43;0.70;;;;;;;;;;4987983;28;20230;-50
2021/03/13 13:39:40;;;;;;;2.50;0.70;;;;;;;;;;5004044;28;20273;-50
2021/03/13 13:42:05;;;;;;;1.70;0.83;;;;;;;;;;5005810;28;20555;-48
2021/03/13 13:44:31;;;;;;;3.17;1.10;;;;;;;;;;5005869;28;20736;-48
2021/03/13 13:46:56;;;;;;;2.40;0.87;;;;;;;;;;5008676;28;20704;-48
2021/03/13 13:49:21;;;;;;;4.33;0.87;;;;;;;;;;5005960;28;20189;-49
2021/03/13 13:51:46;;;;;;;1.10;0.70;;;;;;;;;;5003991;28;20194;-49
2021/03/13 13:54:12;;;;;;;2.53;1.10;;;;;;;;;;5008077;28;20777;-49
2021/03/13 13:56:37;;;;;;;2.43;1.03;;;;;;;;;;4981722;28;20211;-49
2021/03/13 13:59:05;;;;;;;1.63;1.10;;;;;;;;;;5004373;28;20226;-49
2021/03/13 14:01:31;;;;;;;1.30;1.00;;;;;;;;;;5008052;28;20671;-49
2021/03/13 14:03:57;;;;;;;1.60;1.37;;;;;;;;;;5006818;28;20270;-49
2021/03/13 14:06:22;;;;;;;2.10;1.90;;;;;;;;;;5001783;28;20274;-49
2021/03/13 14:08:47;;;;;;;2.77;1.80;;;;;;;;;;5003096;28;20191;-58
2021/03/13 14:11:13;;;;;;;2.97;1.20;;;;;;;;;;5004965;28;20219;-50
2021/03/13 14:13:38;;;;;;;1.30;0.90;;;;;;;;;;5005253;28;20287;-48
2021/03/13 14:16:06;;;;;;;1.13;0.70;;;;;;;;;;5005533;28;20207;-49
2021/03/13 14:18:31;;;;;;;0.77;0.60;;;;;;;;;;4989687;28;20196;-48
2021/03/13 14:20:56;;;;;;;1.77;0.90;;;;;;;;;;4995154;28;20707;-48
2021/03/13 14:23:22;;;;;;;2.17;0.70;;;;;;;;;;5003050;28;20286;-49
2021/03/13 14:25:47;;;;;;;1.57;0.90;;;;;;;;;;5002264;28;20214;-48
2021/03/13 14:28:13;;;;;;;1.43;0.80;;;;;;;;;;5001001;28;20605;-49
2021/03/13 14:30:38;;;;;;;1.40;0.70;;;;;;;;;;5006314;28;20206;-49
2021/03/13 14:33:04;;;;;;;4.17;1.27;;;;;;;;;;5002524;28;20199;-49
2021/03/13 14:35:29;;;;;;;0.93;0.73;;;;;;;;;;5004617;28;20762;-49
2021/03/13 14:37:55;;;;;;;1.67;0.60;;;;;;;;;;5006887;28;20253;-47
2021/03/13 14:40:22;;;;;;;3.93;1.10;;;;;;;;;;5003529;28;20192;-48
2021/03/13 14:42:48;;;;;;;2.23;0.83;;;;;;;;;;5001413;28;20253;-49
2021/03/13 14:45:14;;;;;;;1.37;0.73;;;;;;;;;;4998889;28;20232;-49
2021/03/13 14:47:40;;;;;;;1.40;0.70;;;;;;;;;;5011597;28;20189;-50
2021/03/13 14:50:07;;;;;;;3.07;1.00;;;;;;;;;;5006406;28;20199;-52